Time;durP1;ratioP1;P1;durP2;ratioP2;P2;SDS_P1;SDS_P2;PMS_P1;PMS_P2;Temp;Humidity;BMP_temperature;BMP_pressure;BME280_temperature;BME280_humidity;BME280_pressure;Samples;Min_cycle;Max_cycle;Signal;HPM_P1;HPM_P2
2022/01/25 00:34:07;;;;;;;3.25;2.15;;;9.50;72.00;;;;;;20646241;28;20031;-80
2022/01/25 00:44:11;;;;;;;5.97;2.17;;;9.50;72.00;;;;;;20641192;28;20392;-80
2022/01/25 00:54:26;;;;;;;4.13;2.38;;;9.50;72.00;;;;;;20640489;28;20038;-79
2022/01/25 01:04:27;;;;;;;2.55;1.60;;;9.50;71.90;;;;;;20657826;28;20465;-79
2022/01/25 01:35:27;;;;;;;3.50;1.75;;;9.50;71.80;;;;;;20655931;28;20049;-78
2022/01/25 01:55:35;;;;;;;3.53;2.35;;;9.50;71.80;;;;;;20639329;28;20485;-78
2022/01/25 02:05:35;;;;;;;4.22;2.63;;;9.40;71.70;;;;;;20634612;28;20046;-80
2022/01/25 02:15:37;;;;;;;4.22;2.42;;;9.50;71.80;;;;;;20649944;28;20045;-79
2022/01/25 02:25:38;;;;;;;3.67;2.15;;;9.50;71.80;;;;;;20633629;28;20041;-78
2022/01/25 02:35:40;;;;;;;4.43;2.80;;;9.50;71.80;;;;;;20648660;28;20393;-79
2022/01/25 02:45:41;;;;;;;5.47;2.75;;;9.40;71.70;;;;;;20632141;28;20297;-79
2022/01/25 02:55:41;;;;;;;5.15;2.58;;;9.40;71.70;;;;;;20647286;28;20041;-78
2022/01/25 03:05:43;;;;;;;5.80;2.38;;;9.50;71.70;;;;;;20647051;28;20050;-79
2022/01/25 03:25:48;;;;;;;5.20;2.72;;;9.40;71.70;;;;;;20630488;28;20133;-79
2022/01/25 03:35:48;;;;;;;6.25;3.17;;;9.50;71.70;;;;;;20645731;28;20034;-78
2022/01/25 03:56:08;;;;;;;6.82;3.60;;;9.40;71.60;;;;;;20633865;28;20042;-79
2022/01/25 04:06:10;;;;;;;7.43;3.95;;;9.40;71.60;;;;;;20630030;28;20042;-79
2022/01/25 04:16:16;;;;;;;8.43;4.32;;;9.50;71.60;;;;;;20659768;28;20483;-79
2022/01/25 04:26:17;;;;;;;8.77;4.38;;;9.40;71.50;;;;;;20643610;28;20030;-78
2022/01/25 05:07:41;;;;;;;10.15;5.63;;;9.40;71.10;;;;;;20643926;28;20041;-79
2022/01/25 05:17:44;;;;;;;14.40;6.22;;;9.40;71.00;;;;;;20657664;28;20042;-77
2022/01/25 05:27:46;;;;;;;12.68;6.55;;;9.40;71.00;;;;;;20654875;28;20428;-78
2022/01/25 05:37:47;;;;;;;12.55;7.00;;;9.40;70.90;;;;;;20672179;28;20050;-77
2022/01/25 05:47:47;;;;;;;12.07;6.53;;;9.40;70.90;;;;;;20637812;28;20050;-77
2022/01/25 05:57:51;;;;;;;16.30;8.05;;;9.40;70.80;;;;;;20644241;28;20046;-79
2022/01/25 06:07:52;;;;;;;16.85;8.57;;;9.40;70.80;;;;;;20619524;28;20078;-74
2022/01/25 06:17:52;;;;;;;15.63;7.63;;;9.40;70.80;;;;;;20650417;28;20117;-81
2022/01/25 06:27:54;;;;;;;15.57;7.45;;;9.40;70.70;;;;;;20681664;28;20959;-77
2022/01/25 06:37:55;;;;;;;14.50;7.90;;;9.30;70.70;;;;;;20651687;28;20026;-76
2022/01/25 06:47:55;;;;;;;15.85;7.32;;;9.30;70.70;;;;;;20651550;28;20046;-76
2022/01/25 06:57:56;;;;;;;11.75;6.30;;;9.40;70.70;;;;;;20644717;28;20066;-75
2022/01/25 07:07:56;;;;;;;13.68;7.05;;;9.40;70.70;;;;;;20631311;28;20046;-76
2022/01/25 07:17:57;;;;;;;14.07;6.88;;;9.30;70.70;;;;;;20615214;28;20041;-77
2022/01/25 07:27:58;;;;;;;12.30;6.57;;;9.30;70.60;;;;;;20665334;28;20433;-75
2022/01/25 07:37:58;;;;;;;13.55;6.80;;;9.40;70.70;;;;;;20648432;28;20323;-80
2022/01/25 07:47:59;;;;;;;14.07;7.35;;;9.30;70.70;;;;;;20660913;28;20104;-77
2022/01/25 07:57:59;;;;;;;13.55;7.03;;;9.30;70.60;;;;;;20647898;28;20037;-74
2022/01/25 08:08:01;;;;;;;14.57;7.15;;;9.30;70.60;;;;;;20646432;28;20042;-77
2022/01/25 08:18:02;;;;;;;13.85;7.15;;;9.30;70.60;;;;;;20678388;28;20109;-78
2022/01/25 08:28:02;;;;;;;13.32;6.13;;;9.30;70.60;;;;;;20705925;28;20121;-76
2022/01/25 08:38:03;;;;;;;12.75;6.82;;;9.30;70.70;;;;;;20637221;28;20540;-76
2022/01/25 08:48:04;;;;;;;14.45;6.75;;;9.30;70.60;;;;;;20675578;28;20473;-76
2022/01/25 08:58:04;;;;;;;13.43;6.07;;;9.30;70.60;;;;;;20697232;28;20064;-79
2022/01/25 09:08:06;;;;;;;15.65;7.43;;;9.30;70.60;;;;;;20731029;28;20038;-76
2022/01/25 09:18:07;;;;;;;15.13;6.95;;;9.30;70.60;;;;;;20619911;28;20034;-76
2022/01/25 09:28:10;;;;;;;16.95;8.45;;;9.30;70.70;;;;;;20637339;28;20129;-75
2022/01/25 09:38:11;;;;;;;14.45;7.05;;;9.30;70.60;;;;;;20636077;28;20034;-75
2022/01/25 09:48:15;;;;;;;17.13;7.35;;;9.30;70.60;;;;;;20635895;28;20104;-76
2022/01/25 09:58:16;;;;;;;14.80;7.13;;;9.30;70.60;;;;;;20632627;28;20057;-76
2022/01/25 10:08:20;;;;;;;14.38;7.93;;;9.30;70.60;;;;;;20641771;28;20098;-77
2022/01/25 10:18:21;;;;;;;15.35;7.45;;;9.30;70.60;;;;;;20649524;28;20366;-76
2022/01/25 10:28:27;;;;;;;15.10;7.35;;;9.30;70.60;;;;;;20662333;28;20053;-77
2022/01/25 10:38:32;;;;;;;14.67;7.07;;;9.40;70.70;;;;;;20672748;28;20120;-77
2022/01/25 10:48:32;;;;;;;14.68;8.27;;;9.30;70.60;;;;;;20673028;28;1037405;-76
2022/01/25 10:58:38;;;;;;;14.05;7.70;;;9.30;70.60;;;;;;20572217;28;20044;-75
2022/01/25 11:08:39;;;;;;;11.52;7.05;;;9.30;70.60;;;;;;20629518;28;20034;-76
2022/01/25 11:18:40;;;;;;;12.60;7.10;;;9.30;70.60;;;;;;20612556;28;20065;-70
2022/01/25 11:28:41;;;;;;;14.52;8.13;;;9.30;70.60;;;;;;20680398;28;20034;-75
2022/01/25 11:38:48;;;;;;;13.23;7.97;;;9.30;70.60;;;;;;20631565;28;20374;-78
2022/01/25 11:48:48;;;;;;;14.45;6.85;;;9.20;70.60;;;;;;21024791;23;20046;-76
2022/01/25 11:58:55;;;;;;;12.07;7.30;;;9.30;70.70;;;;;;20646481;28;20061;-79
2022/01/25 12:19:07;;;;;;;13.48;7.07;;;9.30;70.80;;;;;;20678368;28;20032;-76
2022/01/25 12:29:34;;;;;;;16.35;7.35;;;9.40;70.90;;;;;;20676014;28;20041;-78
2022/01/25 12:39:36;;;;;;;14.32;6.72;;;9.30;70.90;;;;;;20686635;28;20038;-77
2022/01/25 12:49:43;;;;;;;11.68;6.78;;;9.30;70.80;;;;;;20672729;28;20508;-80
2022/01/25 12:59:43;;;;;;;14.83;7.10;;;9.20;70.80;;;;;;20656533;28;20070;-81
2022/01/25 13:09:47;;;;;;;14.35;5.47;;;9.30;70.80;;;;;;20624451;28;20511;-80
2022/01/25 13:19:53;;;;;;;9.95;5.53;;;9.30;70.90;;;;;;20667230;28;20117;-79
2022/01/25 13:40:18;;;;;;;10.60;4.97;;;9.30;70.90;;;;;;20742477;28;20042;-79
2022/01/25 13:50:21;;;;;;;13.43;5.40;;;9.20;70.80;;;;;;20645180;28;20060;-74
2022/01/25 14:00:23;;;;;;;9.05;4.38;;;9.30;70.90;;;;;;20670661;28;20042;-81
2022/01/25 14:10:27;;;;;;;10.02;4.97;;;9.20;70.80;;;;;;20634412;28;20533;-81
2022/01/25 14:30:53;;;;;;;8.10;5.03;;;9.30;70.90;;;;;;20738553;28;20092;-84
2022/01/25 14:41:14;;;;;;;9.80;4.67;;;9.20;70.90;;;;;;20638522;28;20027;-83
2022/01/25 14:51:14;;;;;;;8.60;4.78;;;9.20;70.90;;;;;;20618720;28;20042;-82
2022/01/25 15:01:15;;;;;;;9.40;4.20;;;9.30;71.00;;;;;;20658896;28;20077;-84
2022/01/25 15:11:18;;;;;;;7.18;3.70;;;9.20;71.00;;;;;;20655554;28;20289;-83
2022/01/25 15:21:18;;;;;;;8.05;4.00;;;9.30;71.10;;;;;;20626308;28;20045;-75
2022/01/25 15:31:20;;;;;;;8.25;4.32;;;9.30;71.20;;;;;;20627912;28;20042;-75
2022/01/25 15:41:23;;;;;;;8.52;4.18;;;9.30;71.20;;;;;;20642948;28;20033;-75
2022/01/25 15:51:27;;;;;;;6.15;3.75;;;9.30;71.30;;;;;;20634799;28;20507;-79
2022/01/25 16:01:32;;;;;;;;;;;9.20;71.30;;;;;;20653104;28;20034;-82
2022/01/25 16:11:35;;;;;;;11.48;5.72;;;9.20;71.30;;;;;;20679623;28;19925;-75
2022/01/25 16:21:36;;;;;;;13.05;5.72;;;9.20;71.40;;;;;;20675954;28;20043;-76
2022/01/25 16:31:38;;;;;;;11.82;5.80;;;9.20;71.40;;;;;;20626642;28;20038;-79
2022/01/25 16:41:39;;;;;;;9.88;3.80;;;9.20;71.50;;;;;;20655355;28;20030;-78
2022/01/25 16:51:41;;;;;;;11.27;4.63;;;9.20;71.60;;;;;;20665893;28;20121;-79
2022/01/25 17:01:58;;;;;;;13.70;5.93;;;9.20;71.60;;;;;;20642853;28;20301;-80
2022/01/25 17:12:06;;;;;;;9.85;4.88;;;9.20;71.80;;;;;;20669928;28;20189;-77
2022/01/25 17:22:07;;;;;;;10.45;5.75;;;9.20;71.80;;;;;;20668423;28;20404;-76
2022/01/25 17:32:08;;;;;;;10.27;5.00;;;9.20;71.80;;;;;;20654098;28;20053;-78
2022/01/25 17:42:09;;;;;;;14.05;5.82;;;9.20;71.80;;;;;;20638440;28;20097;-76
2022/01/25 17:52:10;;;;;;;12.98;6.68;;;9.20;72.50;;;;;;20659283;28;20479;-81
2022/01/25 18:02:26;;;;;;;10.25;5.05;;;9.30;71.80;;;;;;20718369;28;20041;-78
2022/01/25 18:12:27;;;;;;;10.52;5.03;;;9.20;71.80;;;;;;20732754;28;20046;-79
2022/01/25 18:22:44;;;;;;;9.68;5.05;;;9.20;71.80;;;;;;20752481;28;20053;-81
2022/01/25 18:32:46;;;;;;;9.85;5.03;;;9.20;71.80;;;;;;20740875;28;20046;-74
2022/01/25 18:42:49;;;;;;;10.25;5.55;;;9.30;71.90;;;;;;20695028;28;20045;-75
2022/01/25 18:52:50;;;;;;;11.73;6.28;;;9.20;71.80;;;;;;20730278;28;20046;-78
2022/01/25 19:02:51;;;;;;;11.77;5.43;;;9.20;71.80;;;;;;20713735;28;20561;-77
2022/01/25 19:12:51;;;;;;;9.38;5.13;;;9.20;71.80;;;;;;20712244;28;20332;-78
2022/01/25 19:22:52;;;;;;;9.55;4.70;;;9.20;71.80;;;;;;20706565;28;20030;-77
2022/01/25 19:33:02;;;;;;;10.32;5.40;;;9.20;71.80;;;;;;20660002;28;20049;-77
2022/01/25 19:43:07;;;;;;;10.00;4.93;;;9.20;71.70;;;;;;20668264;28;20034;-77
2022/01/25 19:53:14;;;;;;;10.90;5.38;;;9.20;71.60;;;;;;20652125;28;20053;-76
2022/01/25 20:03:16;;;;;;;;;;;9.20;71.70;;;;;;20658518;28;20093;-77
2022/01/25 20:13:18;;;;;;;15.43;6.15;;;9.20;71.70;;;;;;20657526;28;19920;-75
2022/01/25 20:23:26;;;;;;;13.80;6.18;;;9.20;71.60;;;;;;20657858;28;20543;-76
2022/01/25 20:33:32;;;;;;;12.07;5.72;;;9.10;71.60;;;;;;20643792;28;20038;-76
2022/01/25 20:43:39;;;;;;;14.10;5.88;;;9.20;71.60;;;;;;20640935;28;20058;-77
2022/01/25 20:53:41;;;;;;;10.98;5.43;;;9.20;71.50;;;;;;20654475;28;20129;-76
2022/01/25 21:14:10;;;;;;;10.32;6.38;;;9.20;71.50;;;;;;20640476;28;20072;-75
2022/01/25 21:24:12;;;;;;;11.45;6.38;;;9.20;71.50;;;;;;20654790;28;20448;-75
2022/01/25 21:34:12;;;;;;;11.32;5.50;;;9.20;71.50;;;;;;20594061;28;20121;-77
2022/01/25 21:44:14;;;;;;;10.65;5.60;;;9.20;71.50;;;;;;20634975;28;20113;-77
2022/01/25 21:54:14;;;;;;;13.05;7.32;;;9.10;71.40;;;;;;20635910;28;20489;-76
2022/01/25 22:04:17;;;;;;;14.55;6.65;;;9.20;71.40;;;;;;20635191;28;20036;-78
2022/01/25 22:14:31;;;;;;;12.02;6.18;;;9.10;71.40;;;;;;20634565;28;20033;-76
2022/01/25 22:24:32;;;;;;;14.27;5.97;;;9.10;71.40;;;;;;20637482;28;20026;-76
2022/01/25 22:34:32;;;;;;;12.90;7.30;;;9.10;71.40;;;;;;20632342;28;20038;-76
2022/01/25 22:44:35;;;;;;;10.27;5.78;;;9.20;71.40;;;;;;20632038;28;20300;-77
2022/01/25 22:54:36;;;;;;;10.60;5.60;;;9.10;71.30;;;;;;20647496;28;20066;-77
2022/01/25 23:04:37;;;;;;;9.60;5.20;;;9.10;71.30;;;;;;20647479;28;20030;-78
2022/01/25 23:14:45;;;;;;;9.48;5.63;;;9.10;71.30;;;;;;20646198;28;20154;-78
2022/01/25 23:24:48;;;;;;;10.93;5.50;;;9.10;71.30;;;;;;20662644;28;20034;-76
2022/01/25 23:35:06;;;;;;;13.32;6.00;;;9.10;71.30;;;;;;20630413;28;20026;-76
2022/01/25 23:45:08;;;;;;;11.57;5.47;;;9.10;71.30;;;;;;20635454;28;20489;-76
